createdAt,value
2023-04-13T00:00:01.869Z,0
2023-04-13T00:05:19.590Z,0
2023-04-13T00:10:37.058Z,0
2023-04-13T00:15:54.568Z,0
2023-04-13T00:21:11.958Z,0
2023-04-13T00:26:32.506Z,0
2023-04-13T00:31:49.884Z,0
2023-04-13T00:37:06.928Z,0
2023-04-13T00:42:45.046Z,0
2023-04-13T00:48:02.794Z,0
2023-04-13T00:53:20.173Z,0
2023-04-13T00:58:40.510Z,0
2023-04-13T01:04:00.425Z,0
2023-04-13T01:09:18.335Z,0
2023-04-13T01:14:35.678Z,0
2023-04-13T01:20:13.963Z,0
2023-04-13T01:25:31.552Z,0
2023-04-13T01:30:48.879Z,0
2023-04-13T01:36:06.170Z,0
2023-04-13T01:41:23.863Z,0
2023-04-13T01:46:41.119Z,0
2023-04-13T01:51:58.367Z,0
2023-04-13T01:57:15.638Z,0
2023-04-13T02:02:40.635Z,0
2023-04-13T02:07:58.780Z,0
2023-04-13T02:13:15.848Z,0
2023-04-13T02:18:33.164Z,0
2023-04-13T02:23:50.386Z,0
2023-04-13T02:29:07.734Z,0
2023-04-13T02:34:25.179Z,0
2023-04-13T02:39:44.570Z,0
2023-04-13T02:45:01.956Z,0
2023-04-13T02:50:19.408Z,0
2023-04-13T02:55:39.823Z,0
2023-04-13T03:01:01.593Z,0
2023-04-13T03:06:19.179Z,0
2023-04-13T03:11:36.832Z,0
2023-04-13T03:16:54.464Z,0
2023-04-13T03:22:12.243Z,0
2023-04-13T03:27:29.628Z,0
2023-04-13T03:32:49.842Z,0
2023-04-13T03:38:07.305Z,0
2023-04-13T03:43:24.545Z,0
2023-04-13T03:48:47.150Z,0
2023-04-13T03:54:04.576Z,0
2023-04-13T03:59:21.770Z,0
2023-04-13T04:04:39.015Z,0
2023-04-13T04:09:56.318Z,0
2023-04-13T04:15:13.565Z,0
2023-04-13T04:20:30.820Z,0
2023-04-13T04:25:48.064Z,0
2023-04-13T04:31:22.459Z,23.7
2023-04-13T04:36:39.671Z,59.2
2023-04-13T04:41:56.758Z,110.4
2023-04-13T04:47:13.864Z,186.3
2023-04-13T04:52:30.831Z,325
2023-04-13T04:57:47.639Z,441.3
2023-04-13T05:03:04.792Z,592.5
2023-04-13T05:08:24.433Z,681.2
2023-04-13T05:13:41.645Z,767.5
2023-04-13T05:18:58.982Z,1340.8
2023-04-13T05:24:16.617Z,2014.6
2023-04-13T05:29:33.594Z,1633.7
2023-04-13T05:34:52.658Z,1727.1
2023-04-13T05:40:09.520Z,2489.2
2023-04-13T05:45:26.672Z,4604.2
2023-04-13T05:50:44.248Z,3126.7
2023-04-13T05:56:01.523Z,2504.2
2023-04-13T06:01:18.452Z,3933.8
2023-04-13T06:06:35.484Z,3620.4
2023-04-13T06:11:52.699Z,4075
2023-04-13T06:17:10.111Z,4594.2
2023-04-13T06:22:27.500Z,5295.8
2023-04-13T06:27:45.078Z,7347.9
2023-04-13T06:33:03.322Z,6037.5
2023-04-13T06:38:20.814Z,7285
2023-04-13T06:43:41.185Z,9638.7
2023-04-13T06:48:58.743Z,5876.3
2023-04-13T06:54:15.798Z,7592.9
2023-04-13T06:59:33.008Z,8047.9
2023-04-13T07:04:50.356Z,10246.7
2023-04-13T07:10:07.792Z,7496.2
2023-04-13T07:15:25.021Z,9227.1
2023-04-13T07:20:42.139Z,10385
2023-04-13T07:25:59.548Z,11671.3
2023-04-13T07:31:17.485Z,10736.7
2023-04-13T07:36:34.872Z,8718.3
2023-04-13T07:41:51.805Z,8718.3
2023-04-13T07:47:08.981Z,9352.9
2023-04-13T07:52:26.016Z,6134.2
2023-04-13T07:57:43.175Z,6207.1
2023-04-13T08:03:02.118Z,5089.6
2023-04-13T08:08:21.527Z,6218.3
2023-04-13T08:13:38.684Z,8875
2023-04-13T08:18:56.153Z,9104.6
2023-04-13T08:24:13.005Z,4904.2
2023-04-13T08:29:32.875Z,10230.8
2023-04-13T08:34:51.045Z,29653.3
2023-04-13T08:40:10.130Z,10913.8
2023-04-13T08:45:29.356Z,20430
2023-04-13T08:50:46.143Z,8599.2
2023-04-13T08:56:02.905Z,18079.6
2023-04-13T09:01:19.856Z,14891.7
2023-04-13T09:06:37.065Z,19388.7
2023-04-13T09:11:54.699Z,20110.4
2023-04-13T09:17:30.273Z,25519.2
2023-04-13T09:22:52.936Z,30691.7
2023-04-13T09:28:08.705Z,14078.3
2023-04-13T09:33:24.064Z,14840.8
2023-04-13T09:38:42.266Z,29101.7
2023-04-13T09:43:59.289Z,25826.7
2023-04-13T09:49:29.978Z,22079.6
2023-04-13T09:54:48.799Z,28139.2
2023-04-13T10:00:08.088Z,36562.5
2023-04-13T10:05:23.526Z,20039.6
2023-04-13T10:10:38.710Z,12532.1
2023-04-13T10:15:54.589Z,7727.9
2023-04-13T10:21:11.187Z,7906.2
2023-04-13T10:26:28.997Z,22263.3
2023-04-13T10:31:48.664Z,21744.2
2023-04-13T10:37:06.988Z,27052.9
2023-04-13T10:42:24.297Z,24575.4
2023-04-13T10:47:44.504Z,47545.8
2023-04-13T10:53:03.941Z,47085.8
2023-04-13T10:58:31.968Z,22830
2023-04-13T11:04:03.492Z,19285.4
2023-04-13T11:09:21.130Z,43819.2
2023-04-13T11:14:39.592Z,17341.2
2023-04-13T11:19:54.625Z,45704.2
2023-04-13T11:25:13.744Z,48710
2023-04-13T11:30:32.146Z,47016.7
2023-04-13T11:35:49.725Z,46850
2023-04-13T11:46:28.869Z,49868.3
2023-04-13T11:51:44.269Z,53018.6
2023-04-13T11:57:02.019Z,52477.7
2023-04-13T12:02:22.578Z,52405.9
2023-04-13T12:07:39.143Z,12521.7
2023-04-13T12:18:23.461Z,10782.1
2023-04-13T12:23:40.215Z,23673.3
2023-04-13T12:28:58.358Z,51329.5
2023-04-13T12:34:18.151Z,50172.3
2023-04-13T12:39:36.011Z,44071.7
2023-04-13T12:44:51.974Z,44783.3
2023-04-13T12:50:25.968Z,48292.5
2023-04-13T12:55:43.632Z,43410.8
2023-04-13T13:01:00.968Z,15956.2
2023-04-13T13:06:16.687Z,23583.3
2023-04-13T13:11:32.154Z,15917.1
2023-04-13T13:17:45.070Z,13120.8
2023-04-13T13:22:58.216Z,8076.2
2023-04-13T13:28:15.327Z,23245
2023-04-13T13:33:36.590Z,31484.2
2023-04-13T13:38:54.113Z,30445
2023-04-13T13:44:09.951Z,11988.7
2023-04-13T13:54:49.356Z,30681.7
2023-04-13T14:00:06.812Z,32540
2023-04-13T14:05:28.542Z,29808.3
2023-04-13T14:10:45.927Z,32587.5
2023-04-13T14:16:02.420Z,27513.3
2023-04-13T14:21:16.789Z,25261.7
2023-04-13T14:26:35.675Z,30080.8
2023-04-13T14:31:53.832Z,25488.8
2023-04-13T14:37:13.797Z,25339.6
2023-04-13T14:42:30.867Z,28115
2023-04-13T14:47:47.763Z,19530.8
2023-04-13T14:53:04.584Z,24860.8
2023-04-13T14:58:21.175Z,11316.2
2023-04-13T15:03:36.778Z,9832.5
2023-04-13T15:08:53.196Z,7529.2
2023-04-13T15:14:09.815Z,7567.5
2023-04-13T15:19:26.678Z,7545
2023-04-13T15:24:43.417Z,7309.6
2023-04-13T15:35:16.897Z,5717.1
2023-04-13T15:40:33.803Z,5710.4
2023-04-13T15:45:51.362Z,4664.6
2023-04-13T15:51:53.260Z,4010.8
2023-04-13T15:57:10.558Z,4495.8
2023-04-13T16:02:27.502Z,4529.6
2023-04-13T16:18:23.919Z,3474.6
2023-04-13T16:23:40.941Z,3306.7
2023-04-13T16:28:58.791Z,2974.2
2023-04-13T16:39:35.714Z,2680
2023-04-13T16:44:52.541Z,3027.1
2023-04-13T16:50:09.420Z,2528.3
2023-04-13T16:55:26.290Z,2350.8
2023-04-13T17:00:43.197Z,2221.3
2023-04-13T17:06:00.379Z,2082.9
2023-04-13T17:11:17.096Z,2035.4
2023-04-13T17:16:33.967Z,1807.1
2023-04-13T17:21:50.934Z,1664.2
2023-04-13T17:27:07.820Z,1557.1
2023-04-13T17:32:24.654Z,1567.5
2023-04-13T17:37:41.440Z,1466.7
2023-04-13T17:42:58.418Z,1347.1
2023-04-13T17:48:15.573Z,1208.3
2023-04-13T17:53:32.454Z,1068.3
2023-04-13T17:58:52.473Z,911.2
2023-04-13T18:04:09.630Z,751.2
2023-04-13T18:09:26.575Z,580
2023-04-13T18:14:43.312Z,433.8
2023-04-13T18:30:40.338Z,121.3
2023-04-13T18:35:57.499Z,63.3
2023-04-13T18:46:39.267Z,0.5
2023-04-13T18:51:57.071Z,0
2023-04-13T18:57:14.487Z,0
2023-04-13T19:13:17.752Z,0
2023-04-13T19:19:20.371Z,0
2023-04-13T19:24:38.461Z,0
2023-04-13T19:29:55.681Z,0
2023-04-13T19:35:20.853Z,0
2023-04-13T19:40:38.524Z,0
2023-04-13T19:45:55.815Z,0
2023-04-13T19:52:00.436Z,0
2023-04-13T19:57:18.453Z,0
2023-04-13T20:02:35.727Z,0
2023-04-13T20:07:53.225Z,0
2023-04-13T20:13:10.574Z,0
2023-04-13T20:18:31.066Z,0
2023-04-13T20:23:49.124Z,0
2023-04-13T20:29:17.548Z,0
2023-04-13T20:34:34.949Z,0
2023-04-13T20:39:52.168Z,0
2023-04-13T20:45:09.473Z,0
2023-04-13T20:50:27.377Z,0
2023-04-13T20:55:47.646Z,0
2023-04-13T21:01:05.142Z,0
2023-04-13T21:06:22.358Z,0
2023-04-13T21:17:00.175Z,0
2023-04-13T21:22:23.492Z,0
2023-04-13T21:27:41.198Z,0
2023-04-13T21:32:58.640Z,0
2023-04-13T21:38:16.070Z,0
2023-04-13T21:43:33.348Z,0
2023-04-13T21:48:50.824Z,0
2023-04-13T21:54:08.115Z,0
2023-04-13T21:59:25.424Z,0
2023-04-13T22:04:42.989Z,0
2023-04-13T22:15:20.008Z,0
2023-04-13T22:20:37.338Z,0
2023-04-13T22:25:54.346Z,0
2023-04-13T22:31:11.627Z,0
2023-04-13T22:36:46.077Z,0
2023-04-13T22:47:20.261Z,0
2023-04-13T22:52:37.468Z,0
2023-04-13T22:57:54.826Z,0
2023-04-13T23:03:12.266Z,0
2023-04-13T23:08:39.872Z,0
2023-04-13T23:13:57.441Z,0
2023-04-13T23:19:14.620Z,0
2023-04-13T23:24:39.171Z,0
2023-04-13T23:29:56.562Z,0
2023-04-13T23:35:17.086Z,0
2023-04-13T23:40:34.406Z,0
2023-04-13T23:45:51.609Z,0
2023-04-13T23:51:09.157Z,0
2023-04-13T23:56:26.637Z,0
